createdAt,value
2019-04-12T00:00:40.719Z,18.50
2019-04-12T00:03:31.140Z,20.03
2019-04-12T00:06:21.518Z,20.17
2019-04-12T00:09:11.104Z,20.87
2019-04-12T00:12:01.251Z,19.10
2019-04-12T00:14:50.869Z,20.40
2019-04-12T00:17:41.808Z,19.83
2019-04-12T00:20:32.124Z,20.50
2019-04-12T00:23:21.825Z,19.53
2019-04-12T00:26:11.288Z,20.23
2019-04-12T00:29:01.257Z,18.60
2019-04-12T00:31:52.066Z,22.30
2019-04-12T00:34:41.624Z,19.80
2019-04-12T00:37:33.680Z,21.57
2019-04-12T00:40:22.579Z,21.30
2019-04-12T00:43:12.255Z,20.40
2019-04-12T00:46:05.835Z,19.60
2019-04-12T00:48:52.385Z,21.10
2019-04-12T00:51:42.651Z,21.20
2019-04-12T00:54:32.868Z,19.17
2019-04-12T00:57:22.182Z,22.57
2019-04-12T01:00:15.485Z,20.50
2019-04-12T01:03:05.781Z,20.40
2019-04-12T01:05:55.139Z,20.80
2019-04-12T01:08:45.243Z,19.87
2019-04-12T01:11:35.018Z,20.27
2019-04-12T01:14:27.484Z,20.00
2019-04-12T01:17:16.002Z,20.43
2019-04-12T01:20:06.241Z,18.80
2019-04-12T01:22:55.421Z,19.50
2019-04-12T01:25:45.264Z,19.90
2019-04-12T01:28:34.712Z,19.20
2019-04-12T01:31:24.547Z,18.73
2019-04-12T01:38:02.379Z,19.30
2019-04-12T01:40:52.148Z,18.57
2019-04-12T01:43:41.756Z,18.87
2019-04-12T01:46:31.336Z,18.50
2019-04-12T01:49:20.972Z,19.10
2019-04-12T01:52:10.325Z,17.93
2019-04-12T01:55:08.661Z,19.43
2019-04-12T01:57:51.353Z,18.43
2019-04-12T02:00:41.344Z,19.03
2019-04-12T02:03:30.594Z,18.57
2019-04-12T02:06:20.641Z,18.57
2019-04-12T02:09:10.287Z,17.77
2019-04-12T02:11:59.771Z,17.20
2019-04-12T02:14:50.067Z,18.37
2019-04-12T02:17:39.287Z,19.20
2019-04-12T02:20:28.941Z,18.50
2019-04-12T02:23:18.407Z,18.73
2019-04-12T02:26:08.017Z,17.47
2019-04-12T02:28:57.540Z,18.30
2019-04-12T02:32:03.406Z,19.80
2019-04-12T02:34:53.793Z,19.53
2019-04-12T02:37:43.405Z,18.80
2019-04-12T02:40:34.314Z,17.37
2019-04-12T02:43:24.540Z,18.37
2019-04-12T02:46:15.862Z,19.03
2019-04-12T02:49:10.410Z,18.83
2019-04-12T02:52:22.418Z,18.37
2019-04-12T02:55:39.401Z,16.30
2019-04-12T02:58:46.182Z,17.47
2019-04-12T03:01:39.432Z,19.93
2019-04-12T03:04:27.686Z,16.57
2019-04-12T03:07:17.061Z,17.00
2019-04-12T03:10:07.652Z,16.37
2019-04-12T03:12:59.959Z,17.00
2019-04-12T03:15:50.536Z,17.50
2019-04-12T03:18:39.959Z,16.27
2019-04-12T03:21:29.741Z,18.10
2019-04-12T03:24:19.542Z,18.27
2019-04-12T03:27:09.079Z,18.40
2019-04-12T03:29:58.998Z,18.90
2019-04-12T03:32:48.892Z,17.93
2019-04-12T03:35:39.098Z,19.83
2019-04-12T03:38:29.121Z,16.80
2019-04-12T03:41:18.754Z,18.53
2019-04-12T03:44:08.737Z,17.67
2019-04-12T03:46:57.948Z,18.10
2019-04-12T03:49:47.622Z,17.40
2019-04-12T03:52:36.859Z,17.80
2019-04-12T03:55:26.659Z,17.23
2019-04-12T03:58:16.245Z,17.07
2019-04-12T04:01:05.352Z,18.50
2019-04-12T04:03:54.505Z,17.10
2019-04-12T04:06:43.995Z,18.20
2019-04-12T04:09:33.824Z,16.77
2019-04-12T04:12:23.751Z,18.20
2019-04-12T04:15:13.738Z,19.03
2019-04-12T04:18:22.993Z,17.47
2019-04-12T04:21:37.089Z,17.33
2019-04-12T04:24:29.437Z,17.10
2019-04-12T04:27:49.788Z,18.40
2019-04-12T04:30:46.627Z,19.33
2019-04-12T04:33:36.094Z,19.60
2019-04-12T04:36:26.001Z,17.07
2019-04-12T04:39:15.289Z,18.70
2019-04-12T04:42:04.955Z,16.47
2019-04-12T04:44:54.767Z,18.00
2019-04-12T04:47:44.892Z,17.10
2019-04-12T04:50:34.299Z,17.73
2019-04-12T04:53:24.122Z,18.20
2019-04-12T04:56:13.986Z,16.53
2019-04-12T04:59:03.157Z,17.80
2019-04-12T05:01:52.937Z,16.10
2019-04-12T05:04:43.540Z,16.73
2019-04-12T05:07:33.384Z,17.13
2019-04-12T05:10:23.461Z,16.00
2019-04-12T05:13:13.216Z,16.73
2019-04-12T05:16:03.507Z,16.90
2019-04-12T05:18:53.294Z,17.77
2019-04-12T05:21:44.950Z,17.57
2019-04-12T05:24:34.811Z,16.50
2019-04-12T05:27:23.945Z,17.57
2019-04-12T05:30:13.617Z,15.73
2019-04-12T05:33:03.941Z,16.93
2019-04-12T05:35:54.085Z,16.43
2019-04-12T05:38:43.499Z,16.07
2019-04-12T05:41:33.176Z,16.17
2019-04-12T05:44:23.028Z,17.10
2019-04-12T05:47:30.117Z,16.10
2019-04-12T05:50:23.702Z,16.47
2019-04-12T05:53:13.348Z,15.47
2019-04-12T05:56:03.143Z,14.73
2019-04-12T05:59:00.561Z,13.47
2019-04-12T06:02:07.161Z,15.00
2019-04-12T06:04:58.914Z,14.40
2019-04-12T06:07:48.025Z,15.70
2019-04-12T06:10:37.902Z,13.80
2019-04-12T06:13:28.010Z,13.77
2019-04-12T06:16:17.535Z,16.90
2019-04-12T06:19:07.219Z,14.20
2019-04-12T06:22:01.933Z,14.40
2019-04-12T06:25:02.509Z,13.87
2019-04-12T06:27:56.482Z,13.20
2019-04-12T06:30:49.338Z,13.13
2019-04-12T06:33:39.038Z,12.87
2019-04-12T06:36:28.619Z,14.83
2019-04-12T06:39:18.366Z,14.27
2019-04-12T06:42:08.272Z,14.17
2019-04-12T06:44:57.866Z,13.70
2019-04-12T06:47:47.262Z,14.90
2019-04-12T06:50:39.542Z,12.53
2019-04-12T06:53:29.172Z,14.60
2019-04-12T06:56:26.062Z,15.67
2019-04-12T06:59:15.793Z,13.80
2019-04-12T07:02:21.093Z,13.83
2019-04-12T07:05:10.519Z,14.10
2019-04-12T07:08:02.687Z,13.60
2019-04-12T07:10:52.109Z,13.93
2019-04-12T07:13:41.844Z,14.27
2019-04-12T07:16:31.265Z,13.83
2019-04-12T07:19:20.975Z,14.30
2019-04-12T07:22:10.864Z,13.00
2019-04-12T07:25:00.269Z,13.77
2019-04-12T07:27:49.517Z,12.60
2019-04-12T07:30:38.747Z,13.27
2019-04-12T07:33:27.902Z,14.10
2019-04-12T07:36:17.856Z,13.00
2019-04-12T07:39:08.366Z,12.90
2019-04-12T07:41:58.196Z,13.60
2019-04-12T07:44:47.540Z,14.00
2019-04-12T07:47:36.891Z,15.57
2019-04-12T07:50:51.370Z,12.93
2019-04-12T07:53:59.813Z,12.87
2019-04-12T07:56:49.562Z,13.60
2019-04-12T07:59:39.421Z,13.07
2019-04-12T08:03:05.706Z,14.50
2019-04-12T08:06:07.456Z,14.40
2019-04-12T08:08:56.438Z,14.10
2019-04-12T08:11:46.432Z,15.60
2019-04-12T08:14:36.424Z,15.00
2019-04-12T08:17:25.853Z,14.07
2019-04-12T08:20:15.579Z,19.67
2019-04-12T08:23:06.103Z,15.93
2019-04-12T08:25:56.679Z,15.37
2019-04-12T08:28:46.459Z,13.13
2019-04-12T08:31:36.033Z,12.60
2019-04-12T08:34:25.948Z,14.13
2019-04-12T08:37:15.103Z,13.27
2019-04-12T08:40:06.099Z,14.03
2019-04-12T08:42:55.715Z,14.37
2019-04-12T08:45:45.826Z,13.13
2019-04-12T08:48:35.152Z,17.30
2019-04-12T08:51:24.790Z,14.30
2019-04-12T08:54:14.120Z,14.40
2019-04-12T08:57:03.743Z,30.43
2019-04-12T08:59:54.192Z,18.30
2019-04-12T09:02:43.425Z,17.63
2019-04-12T09:05:33.480Z,17.30
2019-04-12T09:08:23.298Z,15.87
2019-04-12T09:11:12.777Z,14.07
2019-04-12T09:14:01.949Z,14.40
2019-04-12T09:16:51.586Z,15.67
2019-04-12T09:19:46.919Z,15.47
2019-04-12T09:22:51.060Z,14.43
2019-04-12T09:25:46.854Z,13.80
2019-04-12T09:28:36.052Z,14.70
2019-04-12T09:31:25.486Z,13.10
2019-04-12T09:34:17.183Z,14.20
2019-04-12T09:37:05.988Z,15.10
2019-04-12T09:39:55.239Z,15.93
2019-04-12T09:42:44.378Z,18.47
2019-04-12T09:45:34.349Z,15.47
2019-04-12T09:48:23.520Z,14.00
2019-04-12T09:51:14.350Z,15.73
2019-04-12T09:54:03.744Z,17.00
2019-04-12T09:56:53.276Z,17.60
2019-04-12T09:59:43.402Z,22.03
2019-04-12T10:02:33.289Z,16.10
2019-04-12T10:05:22.883Z,15.60
2019-04-12T10:08:12.312Z,15.53
2019-04-12T10:11:02.343Z,16.73
2019-04-12T10:13:51.928Z,15.07
2019-04-12T10:16:41.870Z,16.77
2019-04-12T10:19:31.273Z,19.70
2019-04-12T10:22:21.189Z,31.63
2019-04-12T10:25:11.405Z,16.83
2019-04-12T10:28:03.445Z,16.40
2019-04-12T10:30:52.658Z,15.40
2019-04-12T10:33:42.586Z,13.20
2019-04-12T10:36:32.041Z,14.50
2019-04-12T10:39:35.440Z,14.57
2019-04-12T10:42:25.404Z,13.50
2019-04-12T10:45:51.957Z,14.13
2019-04-12T10:48:56.908Z,13.60
2019-04-12T10:51:54.529Z,15.80
2019-04-12T10:55:00.751Z,14.07
2019-04-12T10:57:50.328Z,13.80
2019-04-12T11:00:43.275Z,14.10
2019-04-12T11:03:32.757Z,16.13
2019-04-12T11:06:30.082Z,16.20
2019-04-12T11:09:14.002Z,15.20
2019-04-12T11:12:03.654Z,14.43
2019-04-12T11:14:54.990Z,16.07
2019-04-12T11:17:44.738Z,14.47
2019-04-12T11:20:34.199Z,14.27
2019-04-12T11:23:23.761Z,15.37
2019-04-12T11:26:13.234Z,15.47
2019-04-12T11:29:15.993Z,13.53
2019-04-12T11:31:53.869Z,14.10
2019-04-12T11:34:43.441Z,14.57
2019-04-12T11:37:33.322Z,14.07
2019-04-12T11:40:23.079Z,14.50
2019-04-12T11:43:13.176Z,14.73
2019-04-12T11:46:02.730Z,15.90
2019-04-12T11:48:52.652Z,19.57
2019-04-12T11:51:42.432Z,16.20
2019-04-12T11:54:33.108Z,14.67
2019-04-12T11:57:22.358Z,15.63
2019-04-12T12:00:16.716Z,17.10
2019-04-12T12:03:11.186Z,14.47
2019-04-12T12:06:06.666Z,14.17
2019-04-12T12:09:13.523Z,14.63
2019-04-12T12:12:28.385Z,14.13
2019-04-12T12:15:42.578Z,14.53
2019-04-12T12:18:36.527Z,17.40
2019-04-12T12:21:26.023Z,15.30
2019-04-12T12:24:15.480Z,13.63
2019-04-12T12:27:05.667Z,14.40
2019-04-12T12:29:54.947Z,12.87
2019-04-12T12:32:44.926Z,13.03
2019-04-12T12:35:34.140Z,14.27
2019-04-12T12:38:23.911Z,13.53
2019-04-12T12:41:13.622Z,14.27
2019-04-12T12:44:03.346Z,18.00
2019-04-12T12:46:52.714Z,18.03
2019-04-12T12:49:42.157Z,15.20
2019-04-12T12:52:31.602Z,13.50
2019-04-12T12:55:21.706Z,12.73
2019-04-12T12:58:11.116Z,13.03
2019-04-12T13:01:01.613Z,13.13
2019-04-12T13:03:50.924Z,12.60
2019-04-12T13:06:40.222Z,12.67
2019-04-12T13:09:29.466Z,11.60
2019-04-12T13:12:19.070Z,10.30
2019-04-12T13:15:08.822Z,12.37
2019-04-12T13:18:01.191Z,11.33
2019-04-12T13:20:50.374Z,11.93
2019-04-12T13:23:39.949Z,15.63
2019-04-12T13:26:29.556Z,13.13
2019-04-12T13:29:19.353Z,17.73
2019-04-12T13:32:30.201Z,15.23
2019-04-12T13:35:50.839Z,14.00
2019-04-12T13:38:48.780Z,15.00
2019-04-12T13:41:38.080Z,12.50
2019-04-12T13:44:27.466Z,15.90
2019-04-12T13:47:17.102Z,16.37
2019-04-12T13:50:07.396Z,15.70
2019-04-12T13:52:56.795Z,23.77
2019-04-12T13:55:46.342Z,18.37
2019-04-12T13:58:35.762Z,25.13
2019-04-12T14:01:25.098Z,15.27
2019-04-12T14:04:15.946Z,23.50
2019-04-12T14:07:05.592Z,27.77
2019-04-12T14:09:54.951Z,23.17
2019-04-12T14:12:44.421Z,17.90
2019-04-12T14:15:34.814Z,15.90
2019-04-12T14:18:24.177Z,15.83
2019-04-12T14:21:14.159Z,14.83
2019-04-12T14:24:03.649Z,15.37
2019-04-12T14:26:53.421Z,13.07
2019-04-12T14:29:42.906Z,13.13
2019-04-12T14:32:38.723Z,11.97
2019-04-12T14:35:39.904Z,14.80
2019-04-12T14:38:29.333Z,13.13
2019-04-12T14:41:18.492Z,14.80
2019-04-12T14:44:25.211Z,18.07
2019-04-12T14:47:21.645Z,16.17
2019-04-12T14:50:11.344Z,15.07
2019-04-12T14:52:44.285Z,13.70
2019-04-12T14:55:16.663Z,14.53
2019-04-12T14:57:49.776Z,16.20
2019-04-12T15:00:23.609Z,16.50
2019-04-12T15:02:56.606Z,15.47
2019-04-12T15:05:31.591Z,16.00
2019-04-12T15:08:03.683Z,17.17
2019-04-12T15:10:36.657Z,16.13
2019-04-12T15:13:08.361Z,14.87
2019-04-12T15:15:43.414Z,15.73
2019-04-12T15:18:16.612Z,18.70
2019-04-12T15:20:47.900Z,15.27
2019-04-12T15:23:21.407Z,15.53
2019-04-12T15:25:54.672Z,14.53
2019-04-12T15:28:31.054Z,16.53
2019-04-12T15:31:04.911Z,14.97
2019-04-12T15:33:37.893Z,15.20
2019-04-12T15:36:10.671Z,14.60
2019-04-12T15:38:44.984Z,15.63
2019-04-12T15:41:17.785Z,14.00
2019-04-12T15:43:51.787Z,16.33
2019-04-12T15:46:25.096Z,15.23
2019-04-12T15:49:00.613Z,15.70
2019-04-12T15:51:34.978Z,16.10
2019-04-12T15:54:08.029Z,15.60
2019-04-12T15:56:41.619Z,17.43
2019-04-12T15:59:14.092Z,16.17
2019-04-12T16:01:47.475Z,14.80
2019-04-12T16:04:21.841Z,14.83
2019-04-12T16:06:57.589Z,15.07
2019-04-12T16:09:32.035Z,16.17
2019-04-12T16:12:31.072Z,17.60
2019-04-12T16:15:31.633Z,14.37
2019-04-12T16:18:14.191Z,15.30
2019-04-12T16:20:47.004Z,16.80
2019-04-12T16:23:20.894Z,14.30
2019-04-12T16:25:52.359Z,15.93
2019-04-12T16:28:57.291Z,15.23
2019-04-12T16:31:51.767Z,14.70
2019-04-12T16:34:44.978Z,15.43
2019-04-12T16:37:38.796Z,14.63
2019-04-12T16:40:11.955Z,14.10
2019-04-12T16:42:45.315Z,16.00
2019-04-12T16:45:17.675Z,16.87
2019-04-12T16:47:52.997Z,15.70
2019-04-12T16:50:42.981Z,14.00
2019-04-12T16:53:15.550Z,16.60
2019-04-12T16:55:47.047Z,17.90
2019-04-12T16:58:18.977Z,15.67
2019-04-12T17:00:51.862Z,15.47
2019-04-12T17:03:25.521Z,15.10
2019-04-12T17:05:56.964Z,14.57
2019-04-12T17:08:28.199Z,15.33
2019-04-12T17:11:01.097Z,17.30
2019-04-12T17:13:34.614Z,16.50
2019-04-12T17:16:07.996Z,16.47
2019-04-12T17:18:40.261Z,16.47
2019-04-12T17:21:13.095Z,17.33
2019-04-12T17:23:45.957Z,16.73
2019-04-12T17:26:18.880Z,17.07
2019-04-12T17:28:50.850Z,16.40
2019-04-12T17:31:27.076Z,16.93
2019-04-12T17:34:01.149Z,20.67
2019-04-12T17:36:34.604Z,17.07
2019-04-12T17:39:08.610Z,19.77
2019-04-12T17:41:41.070Z,22.23
2019-04-12T17:44:13.462Z,19.93
2019-04-12T17:46:48.162Z,20.90
2019-04-12T17:49:26.605Z,18.07
2019-04-12T17:52:04.554Z,18.67
2019-04-12T17:54:50.983Z,19.87
2019-04-12T17:57:25.270Z,18.97
2019-04-12T17:59:57.907Z,17.63
2019-04-12T18:02:42.933Z,18.87
2019-04-12T18:05:16.710Z,19.73
2019-04-12T18:07:50.198Z,17.20
2019-04-12T18:10:23.082Z,17.90
2019-04-12T18:12:59.352Z,16.77
2019-04-12T18:15:32.488Z,17.00
2019-04-12T18:18:05.811Z,17.70
2019-04-12T18:20:38.270Z,18.40
2019-04-12T18:23:12.270Z,18.50
2019-04-12T18:25:44.673Z,18.47
2019-04-12T18:28:17.329Z,18.00
2019-04-12T18:30:49.617Z,18.80
2019-04-12T18:33:21.353Z,19.27
2019-04-12T18:35:55.385Z,18.83
2019-04-12T18:38:28.128Z,18.17
2019-04-12T18:41:01.498Z,20.07
2019-04-12T18:43:34.372Z,17.67
2019-04-12T18:46:06.425Z,18.67
2019-04-12T18:48:42.121Z,17.50
2019-04-12T18:51:13.400Z,19.00
2019-04-12T18:53:46.612Z,17.63
2019-04-12T18:56:22.233Z,19.60
2019-04-12T18:58:56.783Z,18.80
2019-04-12T19:01:28.887Z,17.27
2019-04-12T19:04:00.523Z,20.43
2019-04-12T19:06:34.093Z,19.43
2019-04-12T19:09:09.261Z,17.57
2019-04-12T19:11:42.548Z,18.80
2019-04-12T19:14:15.457Z,17.40
2019-04-12T19:16:48.490Z,19.17
2019-04-12T19:19:22.712Z,18.17
2019-04-12T19:22:06.504Z,18.10
2019-04-12T19:24:38.992Z,19.47
2019-04-12T19:27:12.706Z,19.40
2019-04-12T19:29:47.926Z,18.23
2019-04-12T19:32:40.467Z,19.27
2019-04-12T19:35:40.865Z,17.33
2019-04-12T19:38:33.162Z,19.90
2019-04-12T19:41:08.774Z,19.43
2019-04-12T19:43:43.585Z,18.67
2019-04-12T19:46:17.687Z,18.50
2019-04-12T19:48:53.157Z,15.80
2019-04-12T19:51:25.874Z,19.30
2019-04-12T19:53:57.584Z,18.77
2019-04-12T19:56:29.728Z,19.50
2019-04-12T19:59:02.532Z,17.80
2019-04-12T20:01:36.350Z,17.40
2019-04-12T20:04:07.893Z,18.60
2019-04-12T20:06:40.785Z,19.73
2019-04-12T20:09:15.062Z,20.07
2019-04-12T20:11:48.783Z,19.23
2019-04-12T20:14:20.363Z,19.23
2019-04-12T20:16:52.502Z,18.97
2019-04-12T20:19:25.830Z,19.67
2019-04-12T20:21:57.583Z,21.00
2019-04-12T20:24:29.923Z,19.40
2019-04-12T20:27:03.533Z,17.80
2019-04-12T20:29:35.135Z,18.63
2019-04-12T20:32:08.781Z,21.33
2019-04-12T20:34:43.170Z,18.63
2019-04-12T20:37:14.914Z,18.87
2019-04-12T20:39:48.161Z,20.30
2019-04-12T20:42:23.491Z,18.60
2019-04-12T20:44:57.035Z,20.47
2019-04-12T20:47:28.975Z,20.00
2019-04-12T20:50:00.410Z,18.53
2019-04-12T20:52:33.012Z,18.53
2019-04-12T20:55:04.401Z,19.37
2019-04-12T20:57:37.428Z,20.30
2019-04-12T21:00:11.222Z,18.63
2019-04-12T21:02:44.066Z,19.87
2019-04-12T21:05:16.050Z,18.30
2019-04-12T21:07:49.093Z,19.03
2019-04-12T21:10:22.121Z,19.50
2019-04-12T21:12:56.132Z,19.80
2019-04-12T21:15:29.257Z,18.87
2019-04-12T21:18:03.860Z,17.53
2019-04-12T21:20:35.510Z,18.03
2019-04-12T21:23:07.130Z,17.90
2019-04-12T21:25:40.134Z,17.43
2019-04-12T21:28:14.129Z,18.90
2019-04-12T21:30:47.473Z,16.70
2019-04-12T21:33:28.494Z,17.43
2019-04-12T21:35:55.023Z,18.63
2019-04-12T21:38:28.256Z,17.43
2019-04-12T21:41:02.325Z,16.80
2019-04-12T21:43:37.037Z,17.70
2019-04-12T21:46:19.206Z,17.83
2019-04-12T21:48:43.926Z,15.90
2019-04-12T21:51:17.289Z,16.40
2019-04-12T21:53:50.395Z,17.03
2019-04-12T21:56:23.120Z,15.90
2019-04-12T21:58:57.582Z,16.47
2019-04-12T22:01:31.184Z,17.43
2019-04-12T22:04:04.961Z,15.93
2019-04-12T22:06:37.997Z,16.30
2019-04-12T22:09:11.782Z,17.27
2019-04-12T22:11:45.380Z,15.67
2019-04-12T22:14:18.467Z,16.40
2019-04-12T22:16:50.538Z,16.23
2019-04-12T22:19:24.139Z,18.87
2019-04-12T22:21:56.682Z,16.47
2019-04-12T22:24:30.480Z,16.47
2019-04-12T22:27:06.313Z,18.13
2019-04-12T22:29:37.556Z,17.17
2019-04-12T22:32:13.685Z,18.10
2019-04-12T22:34:47.458Z,17.30
2019-04-12T22:37:21.477Z,16.80
2019-04-12T22:39:54.886Z,16.00
2019-04-12T22:42:28.871Z,17.87
2019-04-12T22:45:01.324Z,17.60
2019-04-12T22:47:32.950Z,18.87
2019-04-12T22:50:04.471Z,18.03
2019-04-12T22:52:36.656Z,19.60
2019-04-12T22:55:12.729Z,18.30
2019-04-12T22:57:44.175Z,17.97
2019-04-12T23:00:18.128Z,16.90
2019-04-12T23:02:51.574Z,17.63
2019-04-12T23:05:24.580Z,17.80
2019-04-12T23:07:56.566Z,18.57
2019-04-12T23:10:31.567Z,18.50
2019-04-12T23:13:08.145Z,15.90
2019-04-12T23:15:41.770Z,17.30
2019-04-12T23:18:14.589Z,18.13
2019-04-12T23:20:45.984Z,18.20
2019-04-12T23:23:17.474Z,17.70
2019-04-12T23:25:50.982Z,18.37
2019-04-12T23:28:23.789Z,17.70
2019-04-12T23:31:18.563Z,17.30
2019-04-12T23:34:20.947Z,16.90
2019-04-12T23:36:52.910Z,17.37
2019-04-12T23:39:26.738Z,18.37
2019-04-12T23:41:58.787Z,16.63
2019-04-12T23:44:30.866Z,19.70
2019-04-12T23:47:06.477Z,18.07
2019-04-12T23:49:38.873Z,17.83
2019-04-12T23:52:12.592Z,17.87
2019-04-12T23:54:45.564Z,17.53
2019-04-12T23:57:18.867Z,17.83
2019-04-12T23:59:52.536Z,17.27
